sensor_id;sensor_type;location;lat;lon;timestamp;pressure;altitude;pressure_sealevel;temperature;humidity
57192;BME280;43052;52.588;13.396;2023-06-22T00:01:02;101466.06;;;19.20;72.41
57192;BME280;43052;52.588;13.396;2023-06-22T00:03:27;101463.56;;;19.16;72.10
57192;BME280;43052;52.588;13.396;2023-06-22T00:05:53;101461.81;;;19.15;72.29
57192;BME280;43052;52.588;13.396;2023-06-22T00:08:19;101460.16;;;19.10;72.41
57192;BME280;43052;52.588;13.396;2023-06-22T00:10:45;101461.97;;;19.08;72.36
57192;BME280;43052;52.588;13.396;2023-06-22T00:13:11;101468.22;;;19.07;72.50
57192;BME280;43052;52.588;13.396;2023-06-22T00:15:37;101466.47;;;19.06;72.33
57192;BME280;43052;52.588;13.396;2023-06-22T00:18:06;101479.75;;;19.06;72.72
57192;BME280;43052;52.588;13.396;2023-06-22T00:20:31;101481.63;;;19.03;72.36
57192;BME280;43052;52.588;13.396;2023-06-22T00:22:57;101477.22;;;19.02;72.39
57192;BME280;43052;52.588;13.396;2023-06-22T00:25:23;101491.44;;;18.99;72.54
57192;BME280;43052;52.588;13.396;2023-06-22T00:27:49;101488.88;;;18.96;72.75
57192;BME280;43052;52.588;13.396;2023-06-22T00:30:15;101489.84;;;18.93;72.71
57192;BME280;43052;52.588;13.396;2023-06-22T00:32:41;101489.03;;;18.90;72.83
57192;BME280;43052;52.588;13.396;2023-06-22T00:35:07;101491.69;;;18.88;72.49
57192;BME280;43052;52.588;13.396;2023-06-22T00:37:32;101483.94;;;18.82;72.51
57192;BME280;43052;52.588;13.396;2023-06-22T00:39:57;101486.66;;;18.79;72.49
57192;BME280;43052;52.588;13.396;2023-06-22T00:42:23;101497.38;;;18.76;73.07
57192;BME280;43052;52.588;13.396;2023-06-22T00:44:48;101500.94;;;18.73;73.18
57192;BME280;43052;52.588;13.396;2023-06-22T00:47:16;101495.69;;;18.72;73.20
57192;BME280;43052;52.588;13.396;2023-06-22T00:49:42;101498.47;;;18.67;73.47
57192;BME280;43052;52.588;13.396;2023-06-22T00:52:08;101495.03;;;18.63;73.17
57192;BME280;43052;52.588;13.396;2023-06-22T00:54:38;101493.41;;;18.59;73.67
57192;BME280;43052;52.588;13.396;2023-06-22T00:57:04;101493.47;;;18.56;73.60
57192;BME280;43052;52.588;13.396;2023-06-22T00:59:29;101486.50;;;18.54;73.90
57192;BME280;43052;52.588;13.396;2023-06-22T01:01:55;101493.66;;;18.50;74.12
57192;BME280;43052;52.588;13.396;2023-06-22T01:04:34;101501.66;;;18.47;74.38
57192;BME280;43052;52.588;13.396;2023-06-22T01:07:10;101499.06;;;18.45;74.50
57192;BME280;43052;52.588;13.396;2023-06-22T01:09:49;101505.28;;;18.43;74.44
57192;BME280;43052;52.588;13.396;2023-06-22T01:12:18;101506.25;;;18.40;74.54
57192;BME280;43052;52.588;13.396;2023-06-22T01:14:50;101505.53;;;18.35;74.36
57192;BME280;43052;52.588;13.396;2023-06-22T01:17:18;101512.69;;;18.31;74.50
57192;BME280;43052;52.588;13.396;2023-06-22T01:19:46;101517.19;;;18.28;74.77
57192;BME280;43052;52.588;13.396;2023-06-22T01:22:15;101505.81;;;18.24;74.93
57192;BME280;43052;52.588;13.396;2023-06-22T01:24:48;101503.22;;;18.21;75.20
57192;BME280;43052;52.588;13.396;2023-06-22T01:29:51;101497.31;;;18.11;75.22
57192;BME280;43052;52.588;13.396;2023-06-22T01:32:18;101506.19;;;18.09;75.45
57192;BME280;43052;52.588;13.396;2023-06-22T01:34:45;101506.19;;;18.09;75.50
57192;BME280;43052;52.588;13.396;2023-06-22T01:37:12;101500.94;;;18.07;75.67
57192;BME280;43052;52.588;13.396;2023-06-22T01:39:38;101501.00;;;18.04;75.91
57192;BME280;43052;52.588;13.396;2023-06-22T01:42:04;101511.56;;;18.06;75.93
57192;BME280;43052;52.588;13.396;2023-06-22T01:44:30;101515.03;;;18.08;76.05
57192;BME280;43052;52.588;13.396;2023-06-22T01:46:56;101512.31;;;18.11;75.86
57192;BME280;43052;52.588;13.396;2023-06-22T01:49:21;101525.59;;;18.08;75.87
57192;BME280;43052;52.588;13.396;2023-06-22T01:51:47;101524.81;;;18.04;76.03
57192;BME280;43052;52.588;13.396;2023-06-22T01:54:12;101525.03;;;17.96;76.50
57192;BME280;43052;52.588;13.396;2023-06-22T01:56:38;101521.56;;;17.91;76.50
57192;BME280;43052;52.588;13.396;2023-06-22T01:59:31;101533.09;;;17.89;76.83
57192;BME280;43052;52.588;13.396;2023-06-22T02:02:07;101530.47;;;17.89;77.03
57192;BME280;43052;52.588;13.396;2023-06-22T02:04:37;101533.94;;;17.91;76.62
57192;BME280;43052;52.588;13.396;2023-06-22T02:07:08;101526.91;;;17.90;77.17
57192;BME280;43052;52.588;13.396;2023-06-22T02:09:38;101526.06;;;17.89;77.14
57192;BME280;43052;52.588;13.396;2023-06-22T02:12:04;101528.72;;;17.88;77.23
57192;BME280;43052;52.588;13.396;2023-06-22T02:14:30;101532.31;;;17.85;77.35
57192;BME280;43052;52.588;13.396;2023-06-22T02:16:56;101523.50;;;17.84;77.66
57192;BME280;43052;52.588;13.396;2023-06-22T02:19:24;101531.44;;;17.84;77.55
57192;BME280;43052;52.588;13.396;2023-06-22T02:21:50;101535.84;;;17.84;77.72
57192;BME280;43052;52.588;13.396;2023-06-22T02:24:15;101531.47;;;17.83;77.80
57192;BME280;43052;52.588;13.396;2023-06-22T02:26:42;101536.69;;;17.86;77.61
57192;BME280;43052;52.588;13.396;2023-06-22T02:29:08;101540.13;;;17.90;77.76
57192;BME280;43052;52.588;13.396;2023-06-22T02:31:33;101535.59;;;17.95;77.77
57192;BME280;43052;52.588;13.396;2023-06-22T02:33:58;101546.97;;;18.00;77.85
57192;BME280;43052;52.588;13.396;2023-06-22T02:36:25;101537.97;;;18.07;77.73
57192;BME280;43052;52.588;13.396;2023-06-22T02:38:51;101542.97;;;18.20;77.58
57192;BME280;43052;52.588;13.396;2023-06-22T02:41:17;101543.72;;;18.25;77.41
57192;BME280;43052;52.588;13.396;2023-06-22T02:43:44;101553.34;;;18.27;77.25
57192;BME280;43052;52.588;13.396;2023-06-22T02:46:10;101542.69;;;18.30;77.42
57192;BME280;43052;52.588;13.396;2023-06-22T02:48:35;101546.97;;;18.36;77.03
57192;BME280;43052;52.588;13.396;2023-06-22T02:51:01;101549.34;;;18.47;77.07
57192;BME280;43052;52.588;13.396;2023-06-22T02:53:26;101549.16;;;18.55;76.93
57192;BME280;43052;52.588;13.396;2023-06-22T02:55:51;101556.84;;;18.64;76.73
57192;BME280;43052;52.588;13.396;2023-06-22T02:58:16;101556.56;;;18.73;76.57
57192;BME280;43052;52.588;13.396;2023-06-22T03:00:42;101547.56;;;18.81;76.34
57192;BME280;43052;52.588;13.396;2023-06-22T03:03:07;101546.53;;;18.86;76.18
57192;BME280;43052;52.588;13.396;2023-06-22T03:05:32;101544.78;;;18.85;76.23
57192;BME280;43052;52.588;13.396;2023-06-22T03:08:00;101544.00;;;18.82;76.04
57192;BME280;43052;52.588;13.396;2023-06-22T03:10:25;101546.88;;;18.74;75.88
57192;BME280;43052;52.588;13.396;2023-06-22T03:12:51;101553.19;;;18.68;76.12
57192;BME280;43052;52.588;13.396;2023-06-22T03:15:16;101555.00;;;18.66;76.01
57192;BME280;43052;52.588;13.396;2023-06-22T03:17:44;101549.81;;;18.63;76.09
57192;BME280;43052;52.588;13.396;2023-06-22T03:20:11;101544.50;;;18.63;76.26
57192;BME280;43052;52.588;13.396;2023-06-22T03:22:39;101545.38;;;18.63;76.09
57192;BME280;43052;52.588;13.396;2023-06-22T03:25:06;101547.16;;;18.63;76.12
57192;BME280;43052;52.588;13.396;2023-06-22T03:27:39;101545.19;;;18.70;76.10
57192;BME280;43052;52.588;13.396;2023-06-22T03:30:05;101553.00;;;18.74;76.04
57192;BME280;43052;52.588;13.396;2023-06-22T03:32:31;101546.09;;;18.70;75.88
57192;BME280;43052;52.588;13.396;2023-06-22T03:34:56;101552.28;;;18.69;76.17
57192;BME280;43052;52.588;13.396;2023-06-22T03:37:24;101546.94;;;18.71;76.02
57192;BME280;43052;52.588;13.396;2023-06-22T03:39:49;101544.41;;;18.66;76.34
57192;BME280;43052;52.588;13.396;2023-06-22T03:42:14;101548.72;;;18.70;76.26
57192;BME280;43052;52.588;13.396;2023-06-22T03:44:39;101546.78;;;18.77;76.64
57192;BME280;43052;52.588;13.396;2023-06-22T03:47:05;101538.53;;;18.88;76.24
57192;BME280;43052;52.588;13.396;2023-06-22T03:49:32;101540.91;;;18.99;75.87
57192;BME280;43052;52.588;13.396;2023-06-22T03:51:57;101541.56;;;19.07;75.70
57192;BME280;43052;52.588;13.396;2023-06-22T03:54:22;101544.00;;;19.15;75.56
57192;BME280;43052;52.588;13.396;2023-06-22T03:56:48;101538.44;;;19.24;75.20
57192;BME280;43052;52.588;13.396;2023-06-22T03:59:13;101539.91;;;19.33;75.19
57192;BME280;43052;52.588;13.396;2023-06-22T04:01:38;101528.13;;;19.43;74.99
57192;BME280;43052;52.588;13.396;2023-06-22T04:04:04;101530.56;;;19.51;74.60
57192;BME280;43052;52.588;13.396;2023-06-22T04:06:29;101543.19;;;19.71;74.03
57192;BME280;43052;52.588;13.396;2023-06-22T04:08:54;101539.69;;;19.99;72.86
57192;BME280;43052;52.588;13.396;2023-06-22T04:11:19;101540.41;;;20.56;72.18
57192;BME280;43052;52.588;13.396;2023-06-22T04:13:45;101548.94;;;21.15;70.37
57192;BME280;43052;52.588;13.396;2023-06-22T04:16:10;101546.09;;;21.67;68.88
57192;BME280;43052;52.588;13.396;2023-06-22T04:18:35;101536.38;;;22.11;66.62
57192;BME280;43052;52.588;13.396;2023-06-22T04:21:02;101542.59;;;22.52;65.32
57192;BME280;43052;52.588;13.396;2023-06-22T04:23:27;101538.88;;;22.77;64.68
57192;BME280;43052;52.588;13.396;2023-06-22T04:25:52;101547.66;;;23.19;64.18
57192;BME280;43052;52.588;13.396;2023-06-22T04:28:18;101550.25;;;23.78;62.71
57192;BME280;43052;52.588;13.396;2023-06-22T04:30:43;101548.13;;;24.39;60.17
57192;BME280;43052;52.588;13.396;2023-06-22T04:33:14;101551.25;;;24.82;58.94
57192;BME280;43052;52.588;13.396;2023-06-22T04:35:40;101554.56;;;25.37;57.38
57192;BME280;43052;52.588;13.396;2023-06-22T04:38:06;101543.16;;;25.81;55.77
57192;BME280;43052;52.588;13.396;2023-06-22T04:40:32;101553.56;;;26.18;54.61
57192;BME280;43052;52.588;13.396;2023-06-22T04:42:57;101556.34;;;26.62;53.21
57192;BME280;43052;52.588;13.396;2023-06-22T04:45:23;101558.69;;;26.97;51.37
57192;BME280;43052;52.588;13.396;2023-06-22T04:47:48;101562.28;;;27.39;50.26
57192;BME280;43052;52.588;13.396;2023-06-22T04:50:14;101556.88;;;27.68;49.01
57192;BME280;43052;52.588;13.396;2023-06-22T04:52:40;101567.81;;;28.07;47.58
57192;BME280;43052;52.588;13.396;2023-06-22T04:55:06;101564.41;;;28.30;46.25
57192;BME280;43052;52.588;13.396;2023-06-22T04:57:31;101558.09;;;28.44;46.21
57192;BME280;43052;52.588;13.396;2023-06-22T05:00:00;101566.41;;;28.67;44.67
57192;BME280;43052;52.588;13.396;2023-06-22T05:02:37;101569.75;;;28.84;44.23
57192;BME280;43052;52.588;13.396;2023-06-22T05:05:02;101563.78;;;28.66;43.68
57192;BME280;43052;52.588;13.396;2023-06-22T05:07:32;101564.22;;;28.46;43.98
57192;BME280;43052;52.588;13.396;2023-06-22T05:09:57;101559.00;;;28.18;43.69
57192;BME280;43052;52.588;13.396;2023-06-22T05:12:22;101564.84;;;27.70;44.13
57192;BME280;43052;52.588;13.396;2023-06-22T05:14:48;101549.63;;;27.56;45.35
57192;BME280;43052;52.588;13.396;2023-06-22T05:17:13;101552.63;;;28.46;43.55
57192;BME280;43052;52.588;13.396;2023-06-22T05:19:39;101554.13;;;29.52;42.09
57192;BME280;43052;52.588;13.396;2023-06-22T05:22:13;101552.78;;;30.66;39.79
57192;BME280;43052;52.588;13.396;2023-06-22T05:24:38;101558.78;;;31.26;38.51
57192;BME280;43052;52.588;13.396;2023-06-22T05:27:03;101557.69;;;30.72;37.29
57192;BME280;43052;52.588;13.396;2023-06-22T05:29:29;101565.50;;;29.44;38.91
57192;BME280;43052;52.588;13.396;2023-06-22T05:31:54;101570.16;;;28.52;40.73
57192;BME280;43052;52.588;13.396;2023-06-22T05:34:19;101577.38;;;28.90;40.36
57192;BME280;43052;52.588;13.396;2023-06-22T05:36:45;101561.75;;;29.58;38.36
57192;BME280;43052;52.588;13.396;2023-06-22T05:39:11;101557.97;;;29.36;38.40
57192;BME280;43052;52.588;13.396;2023-06-22T05:41:37;101553.47;;;29.11;39.36
57192;BME280;43052;52.588;13.396;2023-06-22T05:44:03;101560.19;;;29.80;37.33
57192;BME280;43052;52.588;13.396;2023-06-22T05:46:28;101559.78;;;30.69;36.47
57192;BME280;43052;52.588;13.396;2023-06-22T05:48:53;101555.75;;;31.86;34.31
57192;BME280;43052;52.588;13.396;2023-06-22T05:51:19;101563.56;;;32.22;32.72
57192;BME280;43052;52.588;13.396;2023-06-22T05:53:44;101572.19;;;32.16;32.86
57192;BME280;43052;52.588;13.396;2023-06-22T05:56:11;101577.44;;;32.29;31.66
57192;BME280;43052;52.588;13.396;2023-06-22T05:58:37;101579.00;;;32.10;31.92
57192;BME280;43052;52.588;13.396;2023-06-22T06:01:02;101579.97;;;31.65;32.80
57192;BME280;43052;52.588;13.396;2023-06-22T06:03:27;101584.91;;;31.60;32.17
57192;BME280;43052;52.588;13.396;2023-06-22T06:05:53;101583.47;;;31.33;32.22
57192;BME280;43052;52.588;13.396;2023-06-22T06:08:19;101585.66;;;31.39;32.28
57192;BME280;43052;52.588;13.396;2023-06-22T06:10:44;101584.28;;;32.00;31.91
57192;BME280;43052;52.588;13.396;2023-06-22T06:13:09;101585.75;;;32.37;31.61
57192;BME280;43052;52.588;13.396;2023-06-22T06:15:35;101586.59;;;32.59;31.72
57192;BME280;43052;52.588;13.396;2023-06-22T06:18:00;101582.53;;;33.26;30.39
57192;BME280;43052;52.588;13.396;2023-06-22T06:20:27;101581.88;;;33.34;30.62
57192;BME280;43052;52.588;13.396;2023-06-22T06:22:55;101577.50;;;33.53;30.20
57192;BME280;43052;52.588;13.396;2023-06-22T06:25:21;101576.03;;;33.39;30.31
57192;BME280;43052;52.588;13.396;2023-06-22T06:27:48;101571.53;;;33.79;30.61
57192;BME280;43052;52.588;13.396;2023-06-22T06:30:14;101567.84;;;33.89;29.11
57192;BME280;43052;52.588;13.396;2023-06-22T06:32:40;101574.53;;;33.85;29.38
57192;BME280;43052;52.588;13.396;2023-06-22T06:35:07;101572.28;;;34.10;29.39
57192;BME280;43052;52.588;13.396;2023-06-22T06:37:36;101578.53;;;34.50;28.65
57192;BME280;43052;52.588;13.396;2023-06-22T06:40:02;101581.25;;;35.25;27.85
57192;BME280;43052;52.588;13.396;2023-06-22T06:42:28;101588.00;;;35.49;26.65
57192;BME280;43052;52.588;13.396;2023-06-22T06:47:59;101570.72;;;34.75;27.46
57192;BME280;43052;52.588;13.396;2023-06-22T06:56:48;101582.97;;;36.45;26.54
57192;BME280;43052;52.588;13.396;2023-06-22T06:59:40;101579.59;;;37.63;24.44
57192;BME280;43052;52.588;13.396;2023-06-22T07:02:20;101574.13;;;37.55;23.49
57192;BME280;43052;52.588;13.396;2023-06-22T07:04:46;101563.84;;;37.32;23.47
57192;BME280;43052;52.588;13.396;2023-06-22T07:07:15;101552.63;;;37.52;23.64
57192;BME280;43052;52.588;13.396;2023-06-22T07:09:40;101550.81;;;38.43;23.01
57192;BME280;43052;52.588;13.396;2023-06-22T07:12:10;101553.13;;;38.63;21.87
57192;BME280;43052;52.588;13.396;2023-06-22T07:14:42;101549.09;;;38.42;22.25
57192;BME280;43052;52.588;13.396;2023-06-22T07:17:08;101553.00;;;37.82;22.86
57192;BME280;43052;52.588;13.396;2023-06-22T07:19:35;101558.69;;;36.51;23.82
57192;BME280;43052;52.588;13.396;2023-06-22T07:22:09;101537.94;;;35.24;25.64
57192;BME280;43052;52.588;13.396;2023-06-22T07:24:40;101542.69;;;34.84;26.08
57192;BME280;43052;52.588;13.396;2023-06-22T07:27:09;101535.22;;;34.58;26.45
57192;BME280;43052;52.588;13.396;2023-06-22T07:29:36;101539.00;;;34.08;27.17
57192;BME280;43052;52.588;13.396;2023-06-22T07:32:01;101532.13;;;33.74;28.10
57192;BME280;43052;52.588;13.396;2023-06-22T07:34:29;101547.09;;;33.49;28.34
57192;BME280;43052;52.588;13.396;2023-06-22T07:36:55;101537.38;;;33.37;27.48
57192;BME280;43052;52.588;13.396;2023-06-22T07:39:20;101545.38;;;33.48;28.17
57192;BME280;43052;52.588;13.396;2023-06-22T07:41:50;101546.53;;;33.55;27.48
57192;BME280;43052;52.588;13.396;2023-06-22T07:44:16;101537.53;;;33.45;27.35
57192;BME280;43052;52.588;13.396;2023-06-22T07:46:41;101538.81;;;33.51;27.75
57192;BME280;43052;52.588;13.396;2023-06-22T07:49:06;101533.25;;;33.82;27.79
57192;BME280;43052;52.588;13.396;2023-06-22T07:51:33;101540.09;;;34.55;26.52
57192;BME280;43052;52.588;13.396;2023-06-22T07:53:58;101532.22;;;34.89;25.61
57192;BME280;43052;52.588;13.396;2023-06-22T07:56:24;101525.53;;;35.39;24.28
57192;BME280;43052;52.588;13.396;2023-06-22T07:58:49;101531.16;;;35.10;24.41
57192;BME280;43052;52.588;13.396;2023-06-22T08:01:14;101520.25;;;34.82;25.11
57192;BME280;43052;52.588;13.396;2023-06-22T08:03:40;101516.72;;;34.72;24.94
57192;BME280;43052;52.588;13.396;2023-06-22T08:06:05;101522.22;;;34.52;25.92
57192;BME280;43052;52.588;13.396;2023-06-22T08:08:31;101523.47;;;34.95;25.79
57192;BME280;43052;52.588;13.396;2023-06-22T08:10:56;101528.63;;;34.98;25.18
57192;BME280;43052;52.588;13.396;2023-06-22T08:13:21;101526.47;;;35.02;24.82
57192;BME280;43052;52.588;13.396;2023-06-22T08:15:47;101520.81;;;35.13;24.44
57192;BME280;43052;52.588;13.396;2023-06-22T08:18:12;101526.56;;;34.15;25.32
57192;BME280;43052;52.588;13.396;2023-06-22T08:20:37;101531.31;;;33.94;26.35
57192;BME280;43052;52.588;13.396;2023-06-22T08:23:03;101529.00;;;34.09;26.13
57192;BME280;43052;52.588;13.396;2023-06-22T08:25:34;101534.09;;;33.33;26.16
57192;BME280;43052;52.588;13.396;2023-06-22T08:28:00;101539.34;;;32.63;27.02
57192;BME280;43052;52.588;13.396;2023-06-22T08:30:26;101537.88;;;31.95;27.95
57192;BME280;43052;52.588;13.396;2023-06-22T08:32:51;101543.06;;;31.09;29.44
57192;BME280;43052;52.588;13.396;2023-06-22T08:35:17;101546.53;;;30.54;29.73
57192;BME280;43052;52.588;13.396;2023-06-22T08:37:42;101538.38;;;30.43;29.68
57192;BME280;43052;52.588;13.396;2023-06-22T08:40:09;101533.75;;;30.56;30.42
57192;BME280;43052;52.588;13.396;2023-06-22T08:42:39;101532.59;;;30.47;30.63
57192;BME280;43052;52.588;13.396;2023-06-22T08:45:05;101534.16;;;30.39;29.99
57192;BME280;43052;52.588;13.396;2023-06-22T08:47:31;101527.63;;;30.19;29.93
57192;BME280;43052;52.588;13.396;2023-06-22T08:49:56;101528.19;;;29.99;30.35
57192;BME280;43052;52.588;13.396;2023-06-22T08:52:23;101529.72;;;29.91;30.84
57192;BME280;43052;52.588;13.396;2023-06-22T08:54:49;101529.56;;;29.81;30.54
57192;BME280;43052;52.588;13.396;2023-06-22T08:57:15;101534.53;;;29.50;31.17
57192;BME280;43052;52.588;13.396;2023-06-22T08:59:41;101547.19;;;29.36;31.37
57192;BME280;43052;52.588;13.396;2023-06-22T09:02:06;101532.50;;;29.41;31.90
57192;BME280;43052;52.588;13.396;2023-06-22T09:04:31;101540.03;;;29.48;31.77
57192;BME280;43052;52.588;13.396;2023-06-22T09:07:00;101538.16;;;29.24;32.47
57192;BME280;43052;52.588;13.396;2023-06-22T09:09:26;101534.53;;;29.13;32.50
57192;BME280;43052;52.588;13.396;2023-06-22T09:11:51;101525.63;;;29.85;31.90
57192;BME280;43052;52.588;13.396;2023-06-22T09:14:16;101517.72;;;31.12;30.15
57192;BME280;43052;52.588;13.396;2023-06-22T09:16:42;101518.69;;;32.19;29.03
57192;BME280;43052;52.588;13.396;2023-06-22T09:19:07;101519.47;;;33.15;27.67
57192;BME280;43052;52.588;13.396;2023-06-22T09:21:32;101517.16;;;34.19;27.11
57192;BME280;43052;52.588;13.396;2023-06-22T09:23:57;101520.66;;;35.43;24.56
57192;BME280;43052;52.588;13.396;2023-06-22T09:26:23;101518.94;;;34.96;24.77
57192;BME280;43052;52.588;13.396;2023-06-22T09:28:49;101524.19;;;34.97;24.53
57192;BME280;43052;52.588;13.396;2023-06-22T09:31:14;101514.09;;;35.36;24.30
57192;BME280;43052;52.588;13.396;2023-06-22T09:33:41;101523.22;;;35.44;24.18
57192;BME280;43052;52.588;13.396;2023-06-22T09:36:07;101514.69;;;35.94;23.59
57192;BME280;43052;52.588;13.396;2023-06-22T09:38:36;101506.41;;;36.48;22.69
57192;BME280;43052;52.588;13.396;2023-06-22T09:41:02;101496.38;;;37.42;21.84
57192;BME280;43052;52.588;13.396;2023-06-22T09:43:52;101498.53;;;39.80;20.27
57192;BME280;43052;52.588;13.396;2023-06-22T10:01:14;101483.94;;;44.01;15.76
57192;BME280;43052;52.588;13.396;2023-06-22T10:06:49;101486.75;;;45.44;14.79
57192;BME280;43052;52.588;13.396;2023-06-22T10:09:17;101484.47;;;44.50;15.21
57192;BME280;43052;52.588;13.396;2023-06-22T10:11:54;101503.22;;;44.08;15.36
57192;BME280;43052;52.588;13.396;2023-06-22T10:14:20;101485.50;;;44.56;15.42
57192;BME280;43052;52.588;13.396;2023-06-22T10:17:19;101482.25;;;46.19;13.64
57192;BME280;43052;52.588;13.396;2023-06-22T11:33:00;101419.44;;;30.57;30.58
57192;BME280;43052;52.588;13.396;2023-06-22T11:35:25;101421.09;;;30.92;29.92
57192;BME280;43052;52.588;13.396;2023-06-22T11:37:51;101427.16;;;30.85;29.29
57192;BME280;43052;52.588;13.396;2023-06-22T11:40:16;101433.69;;;30.71;30.50
57192;BME280;43052;52.588;13.396;2023-06-22T11:42:45;101429.22;;;30.92;29.74
57192;BME280;43052;52.588;13.396;2023-06-22T11:45:34;101431.38;;;31.21;29.39
57192;BME280;43052;52.588;13.396;2023-06-22T11:47:59;101434.19;;;31.52;29.06
57192;BME280;43052;52.588;13.396;2023-06-22T11:54:20;101421.91;;;31.27;28.83
57192;BME280;43052;52.588;13.396;2023-06-22T11:56:45;101432.50;;;31.07;29.45
57192;BME280;43052;52.588;13.396;2023-06-22T11:59:10;101428.94;;;31.18;29.16
57192;BME280;43052;52.588;13.396;2023-06-22T12:01:49;101430.59;;;31.42;29.50
57192;BME280;43052;52.588;13.396;2023-06-22T12:04:49;101442.69;;;31.48;29.13
57192;BME280;43052;52.588;13.396;2023-06-22T12:07:20;101414.59;;;31.18;29.21
57192;BME280;43052;52.588;13.396;2023-06-22T12:13:32;101414.88;;;30.81;29.24
57192;BME280;43052;52.588;13.396;2023-06-22T12:19:54;101402.78;;;30.52;30.38
57192;BME280;43052;52.588;13.396;2023-06-22T12:25:40;101396.88;;;30.58;30.51
57192;BME280;43052;52.588;13.396;2023-06-22T12:34:58;101382.88;;;30.08;30.63
57192;BME280;43052;52.588;13.396;2023-06-22T12:37:23;101380.91;;;29.98;31.09
57192;BME280;43052;52.588;13.396;2023-06-22T12:39:54;101364.91;;;29.73;31.15
57192;BME280;43052;52.588;13.396;2023-06-22T12:42:22;101357.41;;;29.65;31.32
57192;BME280;43052;52.588;13.396;2023-06-22T12:44:49;101366.19;;;29.55;32.35
57192;BME280;43052;52.588;13.396;2023-06-22T12:47:20;101363.41;;;29.57;32.09
57192;BME280;43052;52.588;13.396;2023-06-22T12:49:47;101372.72;;;29.64;32.32
57192;BME280;43052;52.588;13.396;2023-06-22T12:52:12;101377.22;;;29.52;31.86
57192;BME280;43052;52.588;13.396;2023-06-22T12:54:37;101365.44;;;29.42;31.66
57192;BME280;43052;52.588;13.396;2023-06-22T12:57:06;101347.28;;;29.33;32.40
57192;BME280;43052;52.588;13.396;2023-06-22T12:59:31;101346.09;;;29.48;32.64
57192;BME280;43052;52.588;13.396;2023-06-22T13:01:56;101343.19;;;29.63;31.82
57192;BME280;43052;52.588;13.396;2023-06-22T13:04:22;101350.09;;;29.90;31.57
57192;BME280;43052;52.588;13.396;2023-06-22T13:06:47;101353.09;;;30.09;31.68
57192;BME280;43052;52.588;13.396;2023-06-22T13:09:14;101352.69;;;29.91;31.33
57192;BME280;43052;52.588;13.396;2023-06-22T13:11:40;101344.31;;;29.72;32.48
57192;BME280;43052;52.588;13.396;2023-06-22T13:14:05;101348.25;;;29.79;31.97
57192;BME280;43052;52.588;13.396;2023-06-22T13:16:30;101350.75;;;29.93;31.36
57192;BME280;43052;52.588;13.396;2023-06-22T13:18:55;101331.59;;;29.85;31.76
57192;BME280;43052;52.588;13.396;2023-06-22T13:21:20;101336.41;;;29.93;31.90
57192;BME280;43052;52.588;13.396;2023-06-22T13:23:46;101333.94;;;29.90;32.31
57192;BME280;43052;52.588;13.396;2023-06-22T13:26:11;101336.53;;;29.91;32.49
57192;BME280;43052;52.588;13.396;2023-06-22T13:28:36;101328.66;;;29.88;32.49
57192;BME280;43052;52.588;13.396;2023-06-22T13:31:02;101319.84;;;29.75;32.27
57192;BME280;43052;52.588;13.396;2023-06-22T13:33:27;101323.97;;;29.56;32.52
57192;BME280;43052;52.588;13.396;2023-06-22T13:35:52;101314.63;;;29.37;32.94
57192;BME280;43052;52.588;13.396;2023-06-22T13:38:18;101312.16;;;29.34;33.37
57192;BME280;43052;52.588;13.396;2023-06-22T13:40:43;101313.75;;;29.37;33.50
57192;BME280;43052;52.588;13.396;2023-06-22T13:43:08;101317.72;;;29.31;33.23
57192;BME280;43052;52.588;13.396;2023-06-22T13:45:34;101301.81;;;29.28;33.34
57192;BME280;43052;52.588;13.396;2023-06-22T13:47:59;101306.34;;;29.28;33.46
57192;BME280;43052;52.588;13.396;2023-06-22T13:50:25;101297.38;;;29.16;33.57
57192;BME280;43052;52.588;13.396;2023-06-22T13:52:50;101301.16;;;29.13;33.99
57192;BME280;43052;52.588;13.396;2023-06-22T13:55:15;101301.91;;;29.15;33.61
57192;BME280;43052;52.588;13.396;2023-06-22T13:57:41;101298.97;;;29.18;34.10
57192;BME280;43052;52.588;13.396;2023-06-22T14:00:07;101299.84;;;29.19;34.21
57192;BME280;43052;52.588;13.396;2023-06-22T14:02:37;101291.34;;;29.12;34.02
57192;BME280;43052;52.588;13.396;2023-06-22T14:05:02;101275.22;;;29.12;34.27
57192;BME280;43052;52.588;13.396;2023-06-22T14:07:28;101269.34;;;29.07;34.47
57192;BME280;43052;52.588;13.396;2023-06-22T14:09:53;101269.69;;;29.02;34.19
57192;BME280;43052;52.588;13.396;2023-06-22T14:12:18;101260.81;;;28.89;34.02
57192;BME280;43052;52.588;13.396;2023-06-22T14:14:44;101255.78;;;28.84;34.63
57192;BME280;43052;52.588;13.396;2023-06-22T14:17:10;101248.38;;;28.75;34.52
57192;BME280;43052;52.588;13.396;2023-06-22T14:19:35;101247.84;;;28.70;34.78
57192;BME280;43052;52.588;13.396;2023-06-22T14:22:00;101245.38;;;28.67;35.06
57192;BME280;43052;52.588;13.396;2023-06-22T14:24:26;101251.97;;;28.75;34.88
57192;BME280;43052;52.588;13.396;2023-06-22T14:26:51;101244.38;;;28.81;35.11
57192;BME280;43052;52.588;13.396;2023-06-22T14:29:16;101242.31;;;28.84;34.79
57192;BME280;43052;52.588;13.396;2023-06-22T14:31:45;101239.63;;;28.84;34.60
57192;BME280;43052;52.588;13.396;2023-06-22T14:34:10;101237.63;;;28.75;34.45
57192;BME280;43052;52.588;13.396;2023-06-22T14:36:36;101228.41;;;28.66;35.07
57192;BME280;43052;52.588;13.396;2023-06-22T14:39:01;101234.75;;;28.65;35.24
57192;BME280;43052;52.588;13.396;2023-06-22T14:41:26;101234.88;;;28.64;35.07
57192;BME280;43052;52.588;13.396;2023-06-22T14:43:51;101232.53;;;28.59;35.13